Time;durP1;ratioP1;P1;durP2;ratioP2;P2;SDS_P1;SDS_P2;PMS_P1;PMS_P2;Temp;Humidity;BMP_temperature;BMP_pressure;BME280_temperature;BME280_humidity;BME280_pressure;Samples;Min_cycle;Max_cycle;Signal;HPM_P1;HPM_P2
2023/09/25 00:01:30;;;;;;;4.15;2.03;;;14.60;99.90;;;;;;5023747;28;20124;-58
2023/09/25 00:03:55;;;;;;;4.63;2.38;;;14.60;99.90;;;;;;5023432;28;20107;-56
2023/09/25 00:06:21;;;;;;;6.28;2.72;;;14.60;99.90;;;;;;5025624;28;20068;-56
2023/09/25 00:08:47;;;;;;;5.53;2.50;;;14.60;99.90;;;;;;5021354;28;20055;-57
2023/09/25 00:11:13;;;;;;;4.20;2.45;;;14.60;99.90;;;;;;5038562;28;20035;-58
2023/09/25 00:13:39;;;;;;;4.90;2.53;;;14.60;99.90;;;;;;5041461;28;20033;-57
2023/09/25 00:16:06;;;;;;;4.25;2.50;;;14.50;99.90;;;;;;5022364;28;20072;-57
2023/09/25 00:18:32;;;;;;;5.20;2.58;;;14.50;99.90;;;;;;5005039;28;20045;-57
2023/09/25 00:20:58;;;;;;;4.30;2.50;;;14.60;99.90;;;;;;5007718;28;20041;-57
2023/09/25 00:23:23;;;;;;;4.32;2.40;;;14.50;99.90;;;;;;5020201;28;20056;-56
2023/09/25 00:25:50;;;;;;;4.47;2.30;;;14.50;99.90;;;;;;5036956;28;20049;-57
2023/09/25 00:28:16;;;;;;;5.47;2.90;;;14.50;99.90;;;;;;5023272;28;20408;-57
2023/09/25 00:30:42;;;;;;;5.18;2.40;;;14.50;99.90;;;;;;5040933;28;20036;-57
2023/09/25 00:33:08;;;;;;;4.90;2.33;;;14.50;99.90;;;;;;5005314;28;20071;-56
2023/09/25 00:35:33;;;;;;;4.10;2.35;;;14.40;99.90;;;;;;5003198;28;20536;-58
2023/09/25 00:37:59;;;;;;;5.82;2.95;;;14.40;99.90;;;;;;5046165;28;20063;-57
2023/09/25 00:40:25;;;;;;;4.60;2.70;;;14.40;99.90;;;;;;5026751;28;20557;-56
2023/09/25 00:42:55;;;;;;;4.18;2.40;;;14.30;99.90;;;;;;5038933;28;20073;-55
2023/09/25 00:45:21;;;;;;;4.80;2.30;;;14.30;99.90;;;;;;5020426;28;20774;-57
2023/09/25 00:47:49;;;;;;;7.68;3.00;;;14.30;99.90;;;;;;5023285;28;20650;-55
2023/09/25 00:50:16;;;;;;;4.45;2.50;;;14.20;99.90;;;;;;5025267;28;20503;-57
2023/09/25 00:52:44;;;;;;;4.43;2.65;;;14.20;99.90;;;;;;5019038;28;20052;-58
2023/09/25 00:55:14;;;;;;;4.05;2.67;;;14.20;99.90;;;;;;5018596;28;20056;-57
2023/09/25 00:57:40;;;;;;;6.05;2.97;;;14.10;99.90;;;;;;5018865;28;20094;-57
2023/09/25 01:00:11;;;;;;;5.38;2.83;;;14.20;99.90;;;;;;5039091;28;20076;-58
2023/09/25 01:02:38;;;;;;;5.45;2.70;;;14.10;99.90;;;;;;4998015;28;20095;-58
2023/09/25 01:05:06;;;;;;;4.80;2.65;;;14.10;99.90;;;;;;5022418;28;20042;-58
2023/09/25 01:07:32;;;;;;;3.78;2.60;;;14.00;99.90;;;;;;5008521;28;20049;-57
2023/09/25 01:10:15;;;;;;;4.53;2.63;;;14.10;99.90;;;;;;5022961;28;20676;-58
2023/09/25 01:12:45;;;;;;;4.93;2.50;;;14.10;99.90;;;;;;5023614;28;20132;-57
2023/09/25 01:15:12;;;;;;;5.03;3.00;;;14.00;99.90;;;;;;5031117;28;20032;-57
2023/09/25 01:17:38;;;;;;;5.53;2.45;;;14.00;99.90;;;;;;5015853;28;20044;-57
2023/09/25 01:20:15;;;;;;;5.97;2.75;;;13.90;99.90;;;;;;5045656;28;20041;-58
2023/09/25 01:22:45;;;;;;;5.65;2.65;;;13.90;99.90;;;;;;5025938;28;20041;-57
2023/09/25 01:25:11;;;;;;;4.70;2.85;;;13.90;99.90;;;;;;5025726;28;20079;-57
2023/09/25 01:27:44;;;;;;;4.68;2.50;;;13.80;99.90;;;;;;5021170;28;20116;-58
2023/09/25 01:30:11;;;;;;;5.60;2.80;;;13.90;99.90;;;;;;5023857;28;20056;-57
2023/09/25 01:32:38;;;;;;;6.07;3.25;;;13.90;99.90;;;;;;5024496;28;20303;-56
2023/09/25 01:35:13;;;;;;;6.10;2.83;;;13.80;99.90;;;;;;5025610;28;20056;-58
2023/09/25 01:37:40;;;;;;;4.47;2.47;;;13.80;99.90;;;;;;5040159;28;20033;-57
2023/09/25 01:40:11;;;;;;;6.80;3.28;;;13.80;99.90;;;;;;5026007;28;20499;-58
2023/09/25 01:42:37;;;;;;;5.55;2.80;;;13.80;99.90;;;;;;5008919;28;20468;-57
2023/09/25 01:45:03;;;;;;;4.70;2.88;;;13.80;99.90;;;;;;5028234;28;20068;-57
2023/09/25 01:47:29;;;;;;;4.30;2.72;;;13.70;99.90;;;;;;5006416;28;20132;-57
2023/09/25 01:49:55;;;;;;;4.32;2.88;;;13.70;99.90;;;;;;5024112;28;20124;-57
2023/09/25 01:52:20;;;;;;;8.00;3.00;;;13.70;99.90;;;;;;5023726;28;20048;-61
2023/09/25 01:54:46;;;;;;;4.80;2.65;;;13.70;99.90;;;;;;5021639;28;20037;-57
2023/09/25 01:57:12;;;;;;;5.90;3.08;;;13.70;99.90;;;;;;5024070;28;20043;-57
2023/09/25 01:59:37;;;;;;;7.60;3.20;;;13.70;99.90;;;;;;5023802;28;20610;-57
2023/09/25 02:02:03;;;;;;;5.82;3.40;;;13.60;99.90;;;;;;5037707;28;20046;-57
2023/09/25 02:04:29;;;;;;;7.75;3.40;;;13.60;99.90;;;;;;5021039;28;20120;-57
2023/09/25 02:06:54;;;;;;;5.85;3.53;;;13.60;99.90;;;;;;5021891;28;20489;-57
2023/09/25 02:09:20;;;;;;;6.18;3.05;;;13.60;99.90;;;;;;5021250;28;20098;-58
2023/09/25 02:11:46;;;;;;;6.50;3.33;;;13.60;99.90;;;;;;5041745;28;20406;-57
2023/09/25 02:14:11;;;;;;;6.80;3.35;;;13.60;99.90;;;;;;5019261;28;20034;-57
2023/09/25 02:16:37;;;;;;;7.10;3.28;;;13.60;99.90;;;;;;5020593;28;20045;-58
2023/09/25 02:19:03;;;;;;;5.97;2.75;;;13.60;99.90;;;;;;5022808;28;20051;-58
2023/09/25 02:21:29;;;;;;;5.95;2.80;;;13.50;99.90;;;;;;5006954;28;20081;-60
2023/09/25 02:23:55;;;;;;;4.70;2.80;;;13.50;99.90;;;;;;5037933;28;20038;-58
2023/09/25 02:26:20;;;;;;;5.93;2.78;;;13.50;99.90;;;;;;5007980;28;20055;-57
2023/09/25 02:28:46;;;;;;;7.55;3.50;;;13.50;99.90;;;;;;4997121;28;20033;-57
2023/09/25 02:31:13;;;;;;;5.57;3.15;;;13.50;99.90;;;;;;5018750;28;20111;-57
2023/09/25 02:33:39;;;;;;;5.03;2.78;;;13.50;99.90;;;;;;5020671;28;20474;-57
2023/09/25 02:36:06;;;;;;;5.88;2.83;;;13.50;99.90;;;;;;5021219;28;20044;-57
2023/09/25 02:38:31;;;;;;;4.43;2.88;;;13.40;99.90;;;;;;5028627;28;20079;-58
2023/09/25 02:40:57;;;;;;;5.05;2.90;;;13.40;99.90;;;;;;5006072;28;20081;-58
2023/09/25 02:43:23;;;;;;;5.25;3.13;;;13.40;99.90;;;;;;5024174;28;20075;-57
2023/09/25 02:45:50;;;;;;;6.93;2.97;;;13.40;99.90;;;;;;4994064;28;20401;-57
2023/09/25 02:48:16;;;;;;;7.85;3.28;;;13.40;99.90;;;;;;5026113;28;20385;-57
2023/09/25 02:50:41;;;;;;;5.35;3.13;;;13.40;99.90;;;;;;5022734;28;20048;-57
2023/09/25 02:53:07;;;;;;;5.28;2.97;;;13.40;99.90;;;;;;5023237;28;20124;-57
2023/09/25 02:55:34;;;;;;;7.35;2.70;;;13.40;99.90;;;;;;5003282;28;20552;-58
2023/09/25 02:57:59;;;;;;;8.27;3.38;;;13.40;99.90;;;;;;5024726;28;20102;-58
2023/09/25 03:00:26;;;;;;;5.72;3.30;;;13.40;99.90;;;;;;5008373;28;20037;-56
2023/09/25 03:02:52;;;;;;;6.13;3.28;;;13.30;99.90;;;;;;5025042;28;20033;-57
2023/09/25 03:05:19;;;;;;;4.18;3.10;;;13.30;99.90;;;;;;5012930;28;20037;-56
2023/09/25 03:07:45;;;;;;;5.47;3.28;;;13.30;99.90;;;;;;5033024;28;20122;-58
2023/09/25 03:10:11;;;;;;;7.65;3.50;;;13.30;99.90;;;;;;5016057;28;20037;-58
2023/09/25 03:12:37;;;;;;;5.20;2.95;;;13.30;99.90;;;;;;5018222;28;20048;-56
2023/09/25 03:15:07;;;;;;;4.65;2.90;;;13.30;99.90;;;;;;5011378;28;20095;-57
2023/09/25 03:17:35;;;;;;;4.78;3.17;;;13.20;99.90;;;;;;5025523;28;20476;-57
2023/09/25 03:20:03;;;;;;;7.38;3.28;;;13.20;99.90;;;;;;5021825;28;20041;-55
2023/09/25 03:22:28;;;;;;;5.22;3.40;;;13.20;99.90;;;;;;5024059;28;20085;-57
2023/09/25 03:24:55;;;;;;;4.40;3.00;;;13.20;99.90;;;;;;5038726;28;20077;-58
2023/09/25 03:27:21;;;;;;;10.00;3.40;;;13.20;99.90;;;;;;5041828;28;20403;-54
2023/09/25 03:29:47;;;;;;;5.60;3.30;;;13.20;99.90;;;;;;5023845;28;20120;-57
2023/09/25 03:32:12;;;;;;;6.32;2.90;;;13.20;99.90;;;;;;5021845;28;20369;-56
2023/09/25 03:34:38;;;;;;;6.20;3.42;;;13.20;99.90;;;;;;4991401;28;20053;-57
2023/09/25 03:37:04;;;;;;;6.32;2.75;;;13.20;99.90;;;;;;5025140;28;20794;-57
2023/09/25 03:39:30;;;;;;;4.80;3.30;;;13.20;99.90;;;;;;5009005;28;20157;-56
2023/09/25 03:41:55;;;;;;;6.75;3.47;;;13.20;99.90;;;;;;5024974;28;20123;-57
2023/09/25 03:44:21;;;;;;;6.20;3.50;;;13.20;99.90;;;;;;5024951;28;20628;-57
2023/09/25 03:46:47;;;;;;;5.72;3.25;;;13.20;99.90;;;;;;5008148;28;20048;-57
2023/09/25 03:49:12;;;;;;;6.47;3.22;;;13.20;99.90;;;;;;5001426;28;20478;-56
2023/09/25 03:51:38;;;;;;;5.03;3.08;;;13.20;99.90;;;;;;5020211;28;20041;-57
2023/09/25 03:54:04;;;;;;;5.22;3.03;;;13.20;99.90;;;;;;5017853;28;20084;-58
2023/09/25 03:56:29;;;;;;;8.23;3.58;;;13.20;99.90;;;;;;5022236;28;20041;-57
2023/09/25 03:58:55;;;;;;;5.28;3.05;;;13.10;99.90;;;;;;5043486;28;20496;-57
2023/09/25 04:01:21;;;;;;;5.03;3.30;;;13.10;99.90;;;;;;5024833;28;20044;-57
2023/09/25 04:03:47;;;;;;;6.93;3.28;;;13.20;99.90;;;;;;5020546;28;20037;-58
2023/09/25 04:06:13;;;;;;;5.28;3.15;;;13.20;99.90;;;;;;5025696;28;20076;-58
2023/09/25 04:08:38;;;;;;;10.00;3.88;;;13.20;99.90;;;;;;5008141;28;20041;-58
2023/09/25 04:11:04;;;;;;;5.43;3.08;;;13.10;99.90;;;;;;5013406;28;20623;-56
2023/09/25 04:13:31;;;;;;;5.45;3.20;;;13.10;99.90;;;;;;5026123;28;20041;-56
2023/09/25 04:15:57;;;;;;;6.72;3.05;;;13.10;99.90;;;;;;5023474;28;20128;-57
2023/09/25 04:18:23;;;;;;;5.18;3.13;;;13.10;99.90;;;;;;5046664;28;20041;-55
2023/09/25 04:20:52;;;;;;;4.00;2.60;;;13.10;99.90;;;;;;5048970;28;20128;-58
2023/09/25 04:23:17;;;;;;;5.22;2.97;;;13.10;99.90;;;;;;5028952;28;20468;-57
2023/09/25 04:25:51;;;;;;;5.72;2.97;;;13.10;99.90;;;;;;5010699;28;20083;-57
2023/09/25 04:28:16;;;;;;;4.32;2.70;;;13.20;99.90;;;;;;5027056;28;20048;-56
2023/09/25 04:30:43;;;;;;;5.55;3.22;;;13.20;99.90;;;;;;5026167;28;20045;-58
2023/09/25 04:33:09;;;;;;;5.70;2.95;;;13.10;99.90;;;;;;5023019;28;20049;-57
2023/09/25 04:35:36;;;;;;;5.72;2.97;;;13.10;99.90;;;;;;5025773;28;20044;-57
2023/09/25 04:38:06;;;;;;;8.38;3.20;;;13.20;99.90;;;;;;5026404;28;20033;-56
2023/09/25 04:40:32;;;;;;;5.68;2.85;;;13.20;99.90;;;;;;5007849;28;20111;-57
2023/09/25 04:43:00;;;;;;;6.78;3.33;;;13.20;99.90;;;;;;5025578;28;20486;-58
2023/09/25 04:45:25;;;;;;;5.95;2.70;;;13.10;99.90;;;;;;4990729;28;20099;-57
2023/09/25 04:47:52;;;;;;;4.15;2.70;;;13.20;99.90;;;;;;5003707;28;20044;-57
2023/09/25 04:50:19;;;;;;;4.15;2.92;;;13.20;99.90;;;;;;5026584;28;20126;-56
2023/09/25 04:52:45;;;;;;;4.60;3.25;;;13.10;99.90;;;;;;5020859;28;20059;-58
2023/09/25 04:55:13;;;;;;;6.10;3.10;;;13.10;99.90;;;;;;5027128;28;20048;-57
2023/09/25 04:57:40;;;;;;;7.50;3.60;;;13.10;99.90;;;;;;5029081;28;20116;-57
2023/09/25 05:00:21;;;;;;;5.60;3.22;;;13.10;99.90;;;;;;5026582;28;20068;-58
2023/09/25 05:02:48;;;;;;;6.22;3.25;;;13.10;99.90;;;;;;5028552;28;20045;-56
2023/09/25 05:05:15;;;;;;;7.25;3.17;;;13.10;99.90;;;;;;5012666;28;20029;-58
2023/09/25 05:07:49;;;;;;;5.18;3.03;;;13.10;99.90;;;;;;5025807;28;20060;-57
2023/09/25 05:10:25;;;;;;;6.72;3.20;;;13.10;99.90;;;;;;5023184;28;20057;-57
2023/09/25 05:13:29;;;;;;;5.65;3.28;;;13.10;99.90;;;;;;5007917;28;20124;-57
2023/09/25 05:16:22;;;;;;;6.60;3.53;;;13.10;99.90;;;;;;5028249;28;20408;-57
2023/09/25 05:18:48;;;;;;;6.25;3.35;;;13.10;99.90;;;;;;5003147;28;20049;-58
2023/09/25 05:21:14;;;;;;;7.07;3.25;;;13.00;99.90;;;;;;5003551;28;20037;-58
2023/09/25 05:23:39;;;;;;;5.22;3.08;;;13.00;99.90;;;;;;5006812;28;20048;-57
2023/09/25 05:26:05;;;;;;;7.15;3.65;;;13.10;99.90;;;;;;5008129;28;20048;-57
2023/09/25 05:28:31;;;;;;;3.90;3.17;;;13.00;99.90;;;;;;5028991;28;20049;-56
2023/09/25 05:30:56;;;;;;;7.85;3.50;;;13.00;99.90;;;;;;5025149;28;20555;-57
2023/09/25 05:33:22;;;;;;;6.00;3.42;;;13.00;99.90;;;;;;5011268;28;20044;-57
2023/09/25 05:35:48;;;;;;;6.22;3.15;;;13.00;99.90;;;;;;4990764;28;20033;-58
2023/09/25 05:38:14;;;;;;;6.70;3.15;;;13.00;99.90;;;;;;5025096;28;20053;-58
2023/09/25 05:40:40;;;;;;;6.78;2.80;;;13.00;99.90;;;;;;5046764;28;20049;-58
2023/09/25 05:43:06;;;;;;;6.53;3.45;;;13.00;99.90;;;;;;5009161;28;20044;-58
2023/09/25 05:45:32;;;;;;;6.00;3.20;;;13.00;99.90;;;;;;5012659;28;20041;-58
2023/09/25 05:47:57;;;;;;;4.15;2.83;;;13.00;99.90;;;;;;5044038;28;20107;-58
2023/09/25 05:50:26;;;;;;;5.10;3.30;;;13.00;99.90;;;;;;5005362;28;20047;-58
2023/09/25 05:52:52;;;;;;;4.35;3.10;;;13.00;99.90;;;;;;5040752;28;20120;-58
2023/09/25 05:55:18;;;;;;;5.15;3.28;;;13.00;99.90;;;;;;5025340;28;20045;-57
2023/09/25 05:57:44;;;;;;;5.45;3.53;;;13.10;99.90;;;;;;5010208;28;20075;-57
2023/09/25 06:00:15;;;;;;;4.43;3.13;;;13.00;99.90;;;;;;5021284;28;20053;-56
2023/09/25 06:02:42;;;;;;;5.80;3.28;;;13.00;99.90;;;;;;5010152;28;20053;-58
2023/09/25 06:05:09;;;;;;;5.35;2.83;;;13.10;99.90;;;;;;5030693;28;20546;-57
2023/09/25 06:07:35;;;;;;;5.95;2.80;;;13.10;99.90;;;;;;5013236;28;20083;-57
2023/09/25 06:10:05;;;;;;;6.63;2.85;;;13.10;99.90;;;;;;5031243;28;20559;-57
2023/09/25 06:12:31;;;;;;;4.13;2.80;;;13.10;99.90;;;;;;5008643;28;20545;-57
2023/09/25 06:14:57;;;;;;;6.05;3.15;;;13.20;99.90;;;;;;5028517;28;20126;-57
2023/09/25 06:17:26;;;;;;;6.72;3.05;;;13.20;99.90;;;;;;5002264;28;20647;-57
2023/09/25 06:19:53;;;;;;;4.93;3.00;;;13.20;99.90;;;;;;5019466;28;20045;-58
2023/09/25 06:22:21;;;;;;;7.70;3.35;;;13.20;99.90;;;;;;5026538;28;20092;-57
2023/09/25 06:24:48;;;;;;;5.07;2.55;;;13.20;99.90;;;;;;5020044;28;20045;-58
2023/09/25 06:27:14;;;;;;;6.00;3.00;;;13.30;99.90;;;;;;5027658;28;20036;-58
2023/09/25 06:29:41;;;;;;;5.78;3.00;;;13.30;99.90;;;;;;5043015;28;20395;-57
2023/09/25 06:32:06;;;;;;;4.40;2.70;;;13.30;99.90;;;;;;5022766;28;20033;-56
2023/09/25 06:34:32;;;;;;;3.92;2.70;;;13.30;99.90;;;;;;5017215;28;20045;-58
2023/09/25 06:36:58;;;;;;;3.90;2.42;;;13.30;99.90;;;;;;5041330;28;20037;-58
2023/09/25 06:39:23;;;;;;;5.15;2.70;;;13.40;99.90;;;;;;5020781;28;20085;-58
2023/09/25 06:41:49;;;;;;;5.07;2.40;;;13.40;99.90;;;;;;5005772;28;20044;-58
2023/09/25 06:44:15;;;;;;;4.53;2.40;;;13.40;99.90;;;;;;5018473;28;20672;-57
2023/09/25 06:46:43;;;;;;;4.00;2.50;;;13.40;99.90;;;;;;5024608;28;20092;-58
2023/09/25 06:49:09;;;;;;;5.00;2.72;;;13.50;99.90;;;;;;5037655;28;20044;-56
2023/09/25 06:51:35;;;;;;;4.25;2.75;;;13.50;99.90;;;;;;5021082;28;20040;-57
2023/09/25 06:54:01;;;;;;;5.53;2.47;;;13.50;99.90;;;;;;5022907;28;20042;-57
2023/09/25 06:56:27;;;;;;;4.85;2.50;;;13.60;99.90;;;;;;5016885;28;20060;-57
2023/09/25 06:58:54;;;;;;;4.47;2.30;;;13.60;99.90;;;;;;5008937;28;20045;-58
2023/09/25 07:01:21;;;;;;;4.35;2.50;;;13.60;99.90;;;;;;5010113;28;20090;-53
2023/09/25 07:03:47;;;;;;;5.43;2.70;;;13.70;99.90;;;;;;5022676;28;20028;-58
2023/09/25 07:06:13;;;;;;;4.80;2.70;;;13.70;99.90;;;;;;5019482;28;20557;-58
2023/09/25 07:08:38;;;;;;;3.88;2.60;;;13.70;99.90;;;;;;5022283;28;20042;-59
2023/09/25 07:11:04;;;;;;;3.03;2.25;;;13.70;99.90;;;;;;5006805;28;20040;-58
2023/09/25 07:13:32;;;;;;;4.25;2.28;;;13.80;99.90;;;;;;5020698;28;20049;-58
2023/09/25 07:16:10;;;;;;;5.22;2.53;;;13.80;99.90;;;;;;5001499;28;20068;-59
2023/09/25 07:18:37;;;;;;;5.50;3.10;;;13.90;99.90;;;;;;5019955;28;20045;-57
2023/09/25 07:21:03;;;;;;;6.18;2.50;;;13.90;99.90;;;;;;5024786;28;20036;-58
2023/09/25 07:23:29;;;;;;;5.13;2.50;;;14.00;99.90;;;;;;5017009;28;20531;-58
2023/09/25 07:26:02;;;;;;;5.63;2.55;;;14.00;99.90;;;;;;5009796;28;20036;-58
2023/09/25 07:28:28;;;;;;;4.75;2.47;;;14.10;99.90;;;;;;5017006;28;20524;-58
2023/09/25 07:30:54;;;;;;;3.25;2.40;;;14.10;99.90;;;;;;5003906;28;20052;-58
2023/09/25 07:33:20;;;;;;;4.20;2.50;;;14.10;99.90;;;;;;5017445;28;20040;-59
2023/09/25 07:35:45;;;;;;;3.72;2.30;;;14.20;99.90;;;;;;5022629;28;20060;-58
2023/09/25 07:38:11;;;;;;;3.30;2.50;;;14.30;99.90;;;;;;5010167;28;20124;-57
2023/09/25 07:40:37;;;;;;;3.75;2.30;;;14.30;99.90;;;;;;5046373;28;20492;-59
2023/09/25 07:43:02;;;;;;;3.47;2.20;;;14.30;99.90;;;;;;5029419;28;20052;-57
2023/09/25 07:45:30;;;;;;;3.35;2.00;;;14.40;99.90;;;;;;5032859;28;20037;-58
2023/09/25 07:47:57;;;;;;;7.32;2.70;;;14.40;99.90;;;;;;5029052;28;20554;-57
2023/09/25 07:50:25;;;;;;;3.15;2.13;;;14.50;99.90;;;;;;5009986;28;20040;-58
2023/09/25 07:52:54;;;;;;;5.00;2.30;;;14.50;99.90;;;;;;5002177;28;20135;-58
2023/09/25 07:55:21;;;;;;;4.28;2.40;;;14.60;99.90;;;;;;5016187;28;20439;-58
2023/09/25 07:57:47;;;;;;;3.70;1.85;;;14.60;99.90;;;;;;5029573;28;20111;-57
2023/09/25 08:00:25;;;;;;;3.30;2.00;;;14.70;99.90;;;;;;5025563;28;20493;-56
2023/09/25 08:02:52;;;;;;;5.13;2.25;;;14.70;99.90;;;;;;4996849;28;20072;-56
2023/09/25 08:05:19;;;;;;;3.42;2.17;;;14.70;99.90;;;;;;5029514;28;20040;-56
2023/09/25 08:07:49;;;;;;;3.50;2.05;;;14.70;99.90;;;;;;5016364;28;20176;-56
2023/09/25 08:10:17;;;;;;;3.22;2.10;;;14.70;99.90;;;;;;4994678;28;20041;-55
2023/09/25 08:12:43;;;;;;;4.25;2.22;;;14.80;99.90;;;;;;5011626;28;20407;-57
2023/09/25 08:15:10;;;;;;;7.78;2.20;;;14.80;99.90;;;;;;5012994;28;20072;-58
2023/09/25 08:17:37;;;;;;;3.83;2.15;;;14.80;99.90;;;;;;5028753;28;20488;-58
2023/09/25 08:20:13;;;;;;;6.40;2.38;;;14.90;99.90;;;;;;5031154;28;20029;-58
2023/09/25 08:22:41;;;;;;;3.28;2.08;;;14.90;99.90;;;;;;5032093;28;20102;-58
2023/09/25 08:25:08;;;;;;;4.55;1.95;;;14.90;99.90;;;;;;5021311;28;20125;-58
2023/09/25 08:27:37;;;;;;;4.10;2.15;;;14.90;99.90;;;;;;5027412;28;20057;-57
2023/09/25 08:30:08;;;;;;;3.90;2.35;;;15.00;99.90;;;;;;5020487;28;20077;-58
2023/09/25 08:32:34;;;;;;;8.10;2.05;;;15.10;99.90;;;;;;5021855;28;20693;-58
2023/09/25 08:35:00;;;;;;;7.70;2.15;;;15.10;99.90;;;;;;5018281;28;20057;-54
2023/09/25 08:37:26;;;;;;;5.32;2.30;;;15.20;99.90;;;;;;5013681;28;20044;-57
2023/09/25 08:39:53;;;;;;;4.47;2.10;;;15.30;99.90;;;;;;5024489;28;20032;-58
2023/09/25 08:42:24;;;;;;;5.68;2.38;;;15.40;99.90;;;;;;5007968;28;20131;-57
2023/09/25 08:44:59;;;;;;;4.18;2.65;;;15.40;99.90;;;;;;5044306;28;20505;-57
2023/09/25 08:47:25;;;;;;;4.47;2.80;;;15.50;99.90;;;;;;5011466;28;20048;-58
2023/09/25 08:49:52;;;;;;;8.80;2.40;;;15.60;99.90;;;;;;5027339;28;20115;-58
2023/09/25 08:52:21;;;;;;;4.93;2.33;;;15.60;99.90;;;;;;5013207;28;20037;-58
2023/09/25 08:54:51;;;;;;;4.57;2.20;;;15.70;99.90;;;;;;5027461;28;20049;-57
2023/09/25 08:57:22;;;;;;;4.53;2.17;;;15.80;99.90;;;;;;5024085;28;20628;-59
2023/09/25 08:59:51;;;;;;;3.60;2.10;;;16.00;99.90;;;;;;5006474;28;20043;-57
2023/09/25 09:02:18;;;;;;;3.83;2.05;;;16.10;99.90;;;;;;5040495;28;20037;-57
2023/09/25 09:04:44;;;;;;;5.55;2.40;;;16.20;99.90;;;;;;5015787;28;20053;-57
2023/09/25 09:07:11;;;;;;;5.25;2.05;;;16.40;99.90;;;;;;5042464;28;20048;-59
2023/09/25 09:09:38;;;;;;;3.85;1.95;;;16.50;99.90;;;;;;5009865;28;20052;-58
2023/09/25 09:12:05;;;;;;;4.07;2.20;;;16.60;99.90;;;;;;5006969;28;20044;-58
2023/09/25 09:14:40;;;;;;;4.47;2.17;;;16.70;99.90;;;;;;5027159;28;20057;-59
2023/09/25 09:17:07;;;;;;;4.85;2.30;;;16.90;99.90;;;;;;5007458;28;20451;-59
2023/09/25 09:19:52;;;;;;;3.50;2.28;;;17.00;99.90;;;;;;5025054;28;20033;-58
2023/09/25 09:22:21;;;;;;;2.90;2.00;;;17.10;99.90;;;;;;5022706;28;20124;-59
2023/09/25 09:24:56;;;;;;;6.00;2.40;;;17.10;99.90;;;;;;5019850;28;20079;-58
2023/09/25 09:27:25;;;;;;;2.88;1.90;;;17.20;99.90;;;;;;5025479;28;20048;-57
2023/09/25 09:29:52;;;;;;;4.03;2.33;;;17.40;99.90;;;;;;5025659;28;20112;-57
2023/09/25 09:32:18;;;;;;;4.90;2.28;;;17.50;99.90;;;;;;5011054;28;20113;-56
2023/09/25 09:34:45;;;;;;;5.28;2.25;;;17.70;99.90;;;;;;4995158;28;20041;-58
2023/09/25 09:37:13;;;;;;;5.25;2.10;;;17.80;99.90;;;;;;5040771;28;20041;-57
2023/09/25 09:39:45;;;;;;;4.47;2.47;;;18.00;99.90;;;;;;5008472;28;20565;-58
2023/09/25 09:42:11;;;;;;;5.82;2.15;;;18.00;99.90;;;;;;5027384;28;20045;-58
2023/09/25 09:44:37;;;;;;;4.80;2.30;;;18.00;99.90;;;;;;5044639;28;20040;-59
2023/09/25 09:47:05;;;;;;;4.60;2.28;;;18.10;99.90;;;;;;5003818;28;20077;-59
2023/09/25 09:49:36;;;;;;;6.13;2.15;;;18.10;99.90;;;;;;5027235;28;20048;-58
2023/09/25 09:52:03;;;;;;;6.40;2.63;;;18.10;99.90;;;;;;5028935;28;20071;-58
2023/09/25 09:54:37;;;;;;;5.88;2.25;;;18.20;99.90;;;;;;5027351;28;20045;-58
2023/09/25 09:57:03;;;;;;;4.55;2.28;;;18.30;99.90;;;;;;5023649;28;20044;-58
2023/09/25 09:59:29;;;;;;;5.72;2.85;;;18.40;99.90;;;;;;5005398;28;20125;-58
2023/09/25 10:01:57;;;;;;;4.63;2.20;;;18.50;99.90;;;;;;5025558;28;20116;-58
2023/09/25 10:04:26;;;;;;;4.53;2.10;;;18.50;99.90;;;;;;4998322;28;20044;-58
2023/09/25 10:06:53;;;;;;;3.78;2.17;;;18.60;99.90;;;;;;5023724;28;20037;-58
2023/09/25 10:09:20;;;;;;;5.43;2.25;;;18.60;99.90;;;;;;5021014;28;20048;-58
2023/09/25 10:11:47;;;;;;;6.28;2.47;;;18.70;99.90;;;;;;5025496;28;20057;-59
2023/09/25 10:14:13;;;;;;;3.80;2.10;;;18.70;99.90;;;;;;5025194;28;20488;-59
2023/09/25 10:16:56;;;;;;;4.80;2.60;;;18.70;99.90;;;;;;4999708;28;20060;-59
2023/09/25 10:19:32;;;;;;;;;;;18.90;99.90;;;;;;5011948;28;20052;-59
2023/09/25 10:22:16;;;;;;;5.93;2.45;;;18.90;99.90;;;;;;5005503;28;19948;-58
2023/09/25 10:24:43;;;;;;;5.80;2.55;;;19.00;99.90;;;;;;5024220;28;20045;-56
2023/09/25 10:27:10;;;;;;;5.22;2.92;;;19.00;99.90;;;;;;5018192;28;20072;-58
2023/09/25 10:29:37;;;;;;;5.05;2.30;;;19.10;99.90;;;;;;5007807;28;20064;-59
2023/09/25 10:32:05;;;;;;;6.88;2.33;;;19.10;99.90;;;;;;5008618;28;20043;-57
2023/09/25 10:34:31;;;;;;;4.50;2.60;;;19.20;99.90;;;;;;5019146;28;20577;-57
2023/09/25 10:36:59;;;;;;;4.55;2.60;;;19.40;99.90;;;;;;5005636;28;20038;-58
2023/09/25 10:39:29;;;;;;;6.13;2.67;;;19.40;99.90;;;;;;5019200;28;20037;-58
2023/09/25 10:42:15;;;;;;;4.13;2.40;;;19.60;99.90;;;;;;5025691;28;20044;-59
2023/09/25 10:44:44;;;;;;;5.50;2.40;;;19.80;99.90;;;;;;5021374;28;20053;-58
2023/09/25 10:47:11;;;;;;;4.82;2.38;;;19.70;99.90;;;;;;5008022;28;20049;-58
2023/09/25 10:49:37;;;;;;;5.03;2.55;;;19.70;99.90;;;;;;5019405;28;20625;-58
2023/09/25 10:52:03;;;;;;;4.60;2.10;;;19.60;99.90;;;;;;5017381;28;20463;-58
2023/09/25 10:54:30;;;;;;;4.63;2.35;;;19.60;99.90;;;;;;5015828;28;20053;-59
2023/09/25 10:56:58;;;;;;;5.45;2.22;;;19.60;99.90;;;;;;5007699;28;20102;-59
2023/09/25 10:59:25;;;;;;;4.07;1.88;;;19.70;99.90;;;;;;5019022;28;20044;-58
2023/09/25 11:01:52;;;;;;;4.18;2.53;;;19.70;99.90;;;;;;5038230;28;20076;-59
2023/09/25 11:04:17;;;;;;;8.23;3.05;;;19.70;99.90;;;;;;5021032;28;20116;-58
2023/09/25 11:06:44;;;;;;;5.80;2.80;;;19.60;99.90;;;;;;5020623;28;20597;-59
2023/09/25 11:09:18;;;;;;;5.07;2.58;;;19.70;99.90;;;;;;5017163;28;20248;-59
2023/09/25 11:11:44;;;;;;;;;;;19.80;99.90;;;;;;5016103;28;20084;-59
2023/09/25 11:14:10;;;;;;;5.68;2.42;;;20.00;99.90;;;;;;5005632;28;19925;-59
2023/09/25 11:16:37;;;;;;;4.50;2.50;;;20.10;99.90;;;;;;4996382;28;20041;-59
2023/09/25 11:19:07;;;;;;;5.35;2.72;;;20.20;99.90;;;;;;5003164;28;20049;-57
2023/09/25 11:21:33;;;;;;;8.95;3.08;;;20.40;99.90;;;;;;5005478;28;20079;-59
2023/09/25 11:23:59;;;;;;;6.72;2.83;;;20.50;99.90;;;;;;4995823;28;20127;-59
2023/09/25 11:26:26;;;;;;;5.05;2.78;;;20.50;99.90;;;;;;5042515;28;20467;-58
2023/09/25 11:28:54;;;;;;;5.53;2.53;;;20.70;99.90;;;;;;5022794;28;20075;-59
2023/09/25 11:31:20;;;;;;;6.53;2.97;;;20.90;99.80;;;;;;5019159;28;20057;-59
2023/09/25 11:33:47;;;;;;;5.25;2.63;;;20.90;99.60;;;;;;5020805;28;20115;-58
2023/09/25 11:36:13;;;;;;;5.32;2.78;;;21.00;99.80;;;;;;5020591;28;20398;-59
2023/09/25 11:38:38;;;;;;;5.90;3.05;;;21.10;99.80;;;;;;5001285;28;20083;-59
2023/09/25 11:41:05;;;;;;;4.90;2.72;;;21.10;99.70;;;;;;5039462;28;20029;-59
2023/09/25 11:43:32;;;;;;;4.32;2.60;;;21.00;99.50;;;;;;5020315;28;20095;-59
2023/09/25 11:45:57;;;;;;;6.20;2.92;;;20.80;99.40;;;;;;5007541;28;20467;-59
2023/09/25 11:48:23;;;;;;;6.28;2.97;;;20.70;99.50;;;;;;4998576;28;20508;-58
2023/09/25 11:50:49;;;;;;;5.25;2.78;;;20.60;99.70;;;;;;5018247;28;20116;-58
2023/09/25 11:53:15;;;;;;;6.22;2.88;;;20.70;99.80;;;;;;5019963;28;20508;-60
2023/09/25 11:55:41;;;;;;;5.72;2.92;;;20.80;99.90;;;;;;5002821;28;20059;-59
2023/09/25 11:58:08;;;;;;;7.47;2.55;;;21.10;99.90;;;;;;5022001;28;20037;-59
2023/09/25 12:00:34;;;;;;;4.68;2.78;;;21.20;99.60;;;;;;5020429;28;20038;-58
2023/09/25 12:03:03;;;;;;;4.75;2.50;;;21.50;99.80;;;;;;5017804;28;20034;-58
2023/09/25 12:05:29;;;;;;;4.57;2.83;;;21.60;99.40;;;;;;5002324;28;20033;-59
2023/09/25 12:07:55;;;;;;;6.57;3.08;;;21.70;99.30;;;;;;5015792;28;20056;-59
2023/09/25 12:10:21;;;;;;;4.93;3.25;;;21.60;99.00;;;;;;5016583;28;20041;-58
2023/09/25 12:12:47;;;;;;;7.13;2.88;;;21.50;99.00;;;;;;5019896;28;20043;-59
2023/09/25 12:15:14;;;;;;;5.30;2.80;;;21.60;99.10;;;;;;5021365;28;20492;-60
2023/09/25 12:17:41;;;;;;;5.40;2.78;;;21.80;99.20;;;;;;5021895;28;20041;-58
2023/09/25 12:20:13;;;;;;;4.65;2.50;;;21.90;98.80;;;;;;5025413;28;20041;-58
2023/09/25 12:22:41;;;;;;;6.13;3.03;;;22.10;98.70;;;;;;5041217;28;20040;-59
2023/09/25 12:25:09;;;;;;;5.03;2.67;;;22.20;98.60;;;;;;5022324;28;20299;-57
2023/09/25 12:27:36;;;;;;;7.10;3.50;;;22.30;98.30;;;;;;5026823;28;20135;-58
2023/09/25 12:30:03;;;;;;;5.40;2.80;;;22.40;98.00;;;;;;5017685;28;20056;-59
2023/09/25 12:32:29;;;;;;;4.57;2.60;;;22.40;98.00;;;;;;5028246;28;20448;-59
2023/09/25 12:34:55;;;;;;;5.03;2.58;;;22.50;98.00;;;;;;5026737;28;20607;-59
2023/09/25 12:37:21;;;;;;;5.50;2.90;;;22.60;97.90;;;;;;5014999;28;20045;-57
2023/09/25 12:39:47;;;;;;;5.72;2.92;;;22.70;97.70;;;;;;5044829;28;20041;-59
2023/09/25 12:42:13;;;;;;;6.13;3.50;;;22.70;97.50;;;;;;5027592;28;20076;-58
2023/09/25 12:44:39;;;;;;;5.32;3.03;;;22.70;97.60;;;;;;5030548;28;20439;-58
2023/09/25 12:47:04;;;;;;;5.30;3.05;;;22.80;97.70;;;;;;5032447;28;20084;-59
2023/09/25 12:49:30;;;;;;;5.43;2.95;;;22.90;97.60;;;;;;5029720;28;20513;-58